Rick Husband Amarillo International Airport Amarillo US
ICAO: KAMA
IATA: AMA
Category: Large
Scheduled Services: Yes

Elevation: 3607 ft
TransAlt. 18000 ft.

Airport Communications:
APP/DEP:121.15
ATIS:118.85
CLNC DEL:121.65
CTAF:118.3
GND:121.9
FORT WORTH RDO:122.65
TWR:118.3
UNICOM:122.95

KAMA Zoom In..

Runways:

(A) RW 04 length 13502 ft width 200 ft
ILS 110.30 / hdg 38

(B) RW 13 length 7901 ft width 150 ft
---- / hdg 129

(C) RW 22 length 13502 ft width 200 ft
---- / hdg 218

(D) RW 31 length 7901 ft width 150 ft
---- / hdg 309

Location; KAMA
Day. 16 / Time. 17.53 Zulu
* Altimeter: 30.16
* Temperature: 32° c. 89.6°f.
* Wind from: VRB° Speed 03 kn.
Dewpoint: 16° c.
Visibility: 10 Statute Miles.
Clouds: Clear (automated report).

KAMA 161753Z VRB03KT 10SM CLR 32/16 A3016 RMK AO2 SLP151 T03170156 10322 20206 50001


Wind From VRB°
Speed 03 kn.

 
 
jpsmedia.com for Web Design worldairports.se 2018   terms of use